Pasadena, MD (21122)

2:48 PM EDT on July 27, 2016 (GMT -0400)
Old Water Oak Point Road | | Change Station

Elev 43 ft 39.14 °N, 76.51 °W | Updated 8 minutes ago

Mostly Cloudy
Mostly Cloudy
92.7 °F
Feels Like 104 °F
N
2.0
Wind Variable Wind from WSW
Gusts 6.0 mph

Today
High -- | Low -- °F
--% Chance of Precip.
Yesterday
High -- | Low -- °F
Precip. -- in
Pressure 29.93 in
Visibility 10.0 miles
Clouds Few 6500 ft
Scattered Clouds 9000 ft
Scattered Clouds 14000 ft
Mostly Cloudy 25000 ft
Heat Index 104 °F
Dew Point 75 °F
Humidity 57%
Rainfall 0.00 in
Snow Depth Not available.
6:02 AM 8:22 PM
Last Quarter, 41% visible
METAR KBWI 271754Z 00000KT 10SM FEW065 SCT090 SCT140 BKN250 33/18 A2993 RMK AO2 SLP134 T03330183 10339 20261 58008
Pressure 29.93 in
Visibility 10.0 miles
Clouds Few 6500 ft
Scattered Clouds 9000 ft
Scattered Clouds 14000 ft
Mostly Cloudy 25000 ft
Heat Index 104 °F
Dew Point 75 °F
Humidity 57%
Rainfall 0.00 in
Snow Depth Not available.
6:02 AM 8:22 PM
Last Quarter, 41% visible
METAR KBWI 271754Z 00000KT 10SM FEW065 SCT090 SCT140 BKN250 33/18 A2993 RMK AO2 SLP134 T03330183 10339 20261 58008

10-Day Weather Forecast

Almanac

Astronomy

Jul. 27, 2016 Rise Set
Actual Time
Civil Twilight
Nautical Twilight
Astronomical Twilight
Moon
Length of Visible Light
Length of Day
Tomorrow will be .
, % of the Moon is Illuminated

Today's Extremes

State Highs State Lows

Community

WunderPhotos

Upload Photos

1,927,897 photos uploaded!

WunderBlog® & News

Nearby

Air Quality

  Air Quality AQ Index Pollutant
Not available.

Snow Depth

Station Depth Elevation

Earthquake Activity

City Distance Mag. Time & Date
Minimum magnitude displayed is 2.5.

Coastal Water Temperatures

Place Temperature

Stations

Nearby Weather Stations

Station Location Temp. Windchill Dew Point Humidity Wind Precip. Elev Updated Type
                   

Watches & Warnings

There are currently no watches in effect.